Time;durP1;ratioP1;P1;durP2;ratioP2;P2;SDS_P1;SDS_P2;PMS_P1;PMS_P2;Temp;Humidity;BMP_temperature;BMP_pressure;BME280_temperature;BME280_humidity;BME280_pressure;Samples;Min_cycle;Max_cycle;Signal;HPM_P1;HPM_P2
2022/11/21 00:00:14;;;;;;;;;7.25;7.25;;;;;8.50;80.26;100261.75;5075454;28;45401;-68
2022/11/21 00:02:39;;;;;;;;;8.00;7.25;;;;;8.52;80.71;100271.28;5075182;27;45364;-67
2022/11/21 00:05:05;;;;;;;;;4.50;4.50;;;;;8.55;80.17;100276.41;5091008;27;45394;-68
2022/11/21 00:07:30;;;;;;;;;11.75;11.75;;;;;8.54;80.54;100277.31;5075439;27;45439;-68
2022/11/21 00:09:56;;;;;;;;;10.25;10.25;;;;;8.50;80.26;100272.22;5073549;28;47027;-69
2022/11/21 00:12:21;;;;;;;;;6.25;6.25;;;;;8.39;80.76;100262.97;5074182;28;45350;-68
2022/11/21 00:14:46;;;;;;;;;3.00;3.00;;;;;8.52;80.13;100278.28;5074990;27;48279;-67
2022/11/21 00:17:12;;;;;;;;;6.75;5.00;;;;;8.50;80.72;100266.97;5075299;27;45634;-67
2022/11/21 00:19:37;;;;;;;;;6.00;5.00;;;;;8.50;80.79;100264.38;5075078;27;45328;-68
2022/11/21 00:22:02;;;;;;;;;6.75;6.25;;;;;8.51;81.03;100268.69;5075008;27;45459;-67
2022/11/21 00:24:28;;;;;;;;;7.25;7.25;;;;;8.50;80.79;100269.59;5075036;27;45475;-68
2022/11/21 00:26:53;;;;;;;;;5.75;5.75;;;;;8.41;80.71;100252.41;5075370;27;45290;-66
2022/11/21 00:29:19;;;;;;;;;5.50;5.50;;;;;8.50;80.65;100261.75;5075648;27;46896;-69
2022/11/21 00:31:45;;;;;;;;;4.00;4.00;;;;;8.52;80.93;100250.31;5075415;27;45475;-68
2022/11/21 00:34:10;;;;;;;;;4.50;4.50;;;;;8.51;80.94;100251.22;5074877;27;45387;-67
2022/11/21 00:36:35;;;;;;;;;5.00;5.00;;;;;8.51;80.78;100237.25;5075082;27;45647;-67
2022/11/21 00:39:01;;;;;;;;;5.00;5.00;;;;;8.55;80.93;100228.34;5075070;27;45721;-69
2022/11/21 00:41:26;;;;;;;;;6.25;6.25;;;;;8.60;80.48;100232.53;5074887;27;45333;-68
2022/11/21 00:43:51;;;;;;;;;4.00;4.00;;;;;8.59;80.81;100222.06;5073622;28;45355;-68
2022/11/21 00:46:17;;;;;;;;;3.50;3.50;;;;;8.57;80.67;100213.41;5075075;27;45219;-68
2022/11/21 00:48:42;;;;;;;;;6.50;6.50;;;;;8.64;80.61;100227.16;5074877;27;45359;-68
2022/11/21 00:51:07;;;;;;;;;4.00;4.00;;;;;8.58;80.79;100210.75;5073160;28;45463;-68
2022/11/21 00:53:33;;;;;;;;;4.00;3.75;;;;;8.67;80.65;100212.16;5074611;27;45874;-68
2022/11/21 00:55:59;;;;;;;;;4.00;4.00;;;;;8.69;80.62;100218.19;5074903;27;45555;-68
2022/11/21 00:58:27;;;;;;;;;5.75;5.75;;;;;8.70;80.39;100219.06;5074844;27;46143;-67
2022/11/21 01:01:01;;;;;;;;;4.00;4.00;;;;;8.68;80.59;100206.00;5107554;27;45416;-67
2022/11/21 01:03:27;;;;;;;;;6.50;6.50;;;;;8.70;80.88;100211.19;5074771;27;45285;-67
2022/11/21 01:05:52;;;;;;;;;7.25;7.25;;;;;8.60;80.41;100193.19;5077014;28;45343;-69
2022/11/21 01:08:17;;;;;;;;;5.25;5.25;;;;;8.58;80.47;100192.41;5077505;27;45429;-68
2022/11/21 01:10:43;;;;;;;;;5.00;3.75;;;;;8.70;80.72;100205.94;5076113;28;45315;-67
2022/11/21 01:13:08;;;;;;;;;4.75;4.75;;;;;8.67;80.92;100199.03;5077666;27;45404;-67
2022/11/21 01:15:33;;;;;;;;;7.00;6.25;;;;;8.60;80.85;100198.44;5078096;27;45350;-67
2022/11/21 01:17:59;;;;;;;;;7.00;5.00;;;;;8.61;80.60;100200.16;5092944;27;46918;-68
2022/11/21 01:20:24;;;;;;;;;5.75;5.00;;;;;8.57;81.07;100193.31;5078022;27;45263;-66
2022/11/21 01:22:50;;;;;;;;;2.25;2.25;;;;;8.57;81.33;100195.94;5077913;27;45267;-66
2022/11/21 01:25:15;;;;;;;;;4.75;4.75;;;;;8.55;81.53;100189.03;5077788;27;45224;-68
2022/11/21 01:27:40;;;;;;;;;4.00;4.00;;;;;8.54;81.34;100198.66;5076179;28;47189;-67
2022/11/21 01:30:06;;;;;;;;;4.25;4.25;;;;;8.54;81.11;100187.31;5077843;27;47069;-68
2022/11/21 01:32:31;;;;;;;;;6.25;5.50;;;;;8.50;81.54;100190.97;5077888;27;45401;-67
2022/11/21 01:34:57;;;;;;;;;5.50;5.50;;;;;8.49;82.09;100184.88;5077774;27;45474;-68
2022/11/21 01:37:22;;;;;;;;;5.00;5.00;;;;;8.51;81.83;100188.31;5077472;28;57489;-68
2022/11/21 01:39:47;;;;;;;;;8.00;7.00;;;;;8.50;81.94;100183.09;5077486;27;45211;-68
2022/11/21 01:42:13;;;;;;;;;7.00;6.00;;;;;8.48;82.22;100170.00;5093372;27;45396;-67
2022/11/21 01:44:52;;;;;;;;;6.00;6.00;;;;;8.45;82.17;100167.50;5077762;27;45575;-69
2022/11/21 01:47:18;;;;;;;;;4.00;4.00;;;;;8.43;82.25;100164.94;5077538;27;45437;-68
2022/11/21 01:49:45;;;;;;;;;5.75;5.75;;;;;8.40;82.59;100144.09;5077413;27;45468;-68
2022/11/21 01:52:20;;;;;;;;;5.00;5.00;;;;;8.44;82.33;100156.19;5077739;27;45258;-67
2022/11/21 01:54:55;;;;;;;;;7.25;7.25;;;;;8.45;82.48;100141.28;5076957;28;45303;-67
2022/11/21 01:57:43;;;;;;;;;7.50;7.50;;;;;8.43;82.32;100133.50;5077139;27;46477;-67
2022/11/21 02:00:14;;;;;;;;;5.75;5.75;;;;;8.38;82.65;100127.59;5076749;28;45555;-68
2022/11/21 02:02:45;;;;;;;;;6.50;6.50;;;;;8.41;82.70;100126.59;5076844;28;45295;-68
2022/11/21 02:05:15;;;;;;;;;7.50;7.50;;;;;8.40;82.68;100124.88;5077096;28;45388;-68
2022/11/21 02:07:44;;;;;;;;;5.25;5.00;;;;;8.39;82.68;100125.81;5076861;27;46132;-67
2022/11/21 02:10:11;;;;;;;;;5.75;5.75;;;;;8.40;82.86;100132.75;5077011;27;45510;-68
2022/11/21 02:12:57;;;;;;;;;4.75;4.75;;;;;8.39;82.59;100141.53;5077575;27;45333;-67
2022/11/21 02:15:25;;;;;;;;;4.75;4.75;;;;;8.33;82.40;100126.91;5076350;28;45514;-68
2022/11/21 02:17:51;;;;;;;;;7.00;7.00;;;;;8.38;83.20;100134.56;5076241;27;46050;-67
2022/11/21 02:20:19;;;;;;;;;5.75;5.75;;;;;8.42;83.03;100125.69;5076065;27;45402;-67
2022/11/21 02:23:22;;;;;;;;;7.00;7.00;;;;;8.44;82.98;100126.47;5076387;27;45497;-67
2022/11/21 02:25:49;;;;;;;;;11.50;10.50;;;;;8.47;83.12;100118.50;5074929;28;45242;-67
2022/11/21 02:28:19;;;;;;;;;9.50;9.50;;;;;8.48;82.85;100118.44;5074730;28;47745;-67
2022/11/21 02:30:45;;;;;;;;;10.50;10.50;;;;;8.49;82.48;100108.88;5091979;27;45536;-67
2022/11/21 02:33:11;;;;;;;;;12.00;12.00;;;;;8.50;82.40;100107.09;5076780;27;45273;-69
2022/11/21 02:35:37;;;;;;;;;11.75;11.00;;;;;8.47;82.71;100102.78;5076570;28;45447;-67
2022/11/21 02:38:10;;;;;;;;;30.25;28.75;;;;;8.51;82.41;100098.31;5076002;28;45239;-68
2022/11/21 02:40:40;;;;;;;;;21.75;17.00;;;;;8.51;82.30;100093.94;5075070;28;45318;-67
2022/11/21 02:43:20;;;;;;;;;11.75;11.75;;;;;8.52;82.47;100095.63;5076144;27;45386;-68
2022/11/21 02:45:46;;;;;;;;;5.00;5.00;;;;;8.50;82.28;100093.97;5076719;27;45411;-66
2022/11/21 02:48:12;;;;;;;;;7.00;7.00;;;;;8.53;82.61;100092.09;5075979;27;45292;-68
2022/11/21 02:50:39;;;;;;;;;7.00;7.00;;;;;8.52;82.52;100093.03;5076054;28;45319;-69
2022/11/21 02:53:08;;;;;;;;;5.75;5.75;;;;;8.47;82.24;100079.19;5076248;27;45421;-67
2022/11/21 02:55:33;;;;;;;;;5.25;5.25;;;;;8.50;82.19;100084.34;5076172;27;45408;-66
2022/11/21 02:57:59;;;;;;;;;10.00;8.50;;;;;8.47;82.50;100072.19;5075851;27;45646;-67
2022/11/21 03:00:24;;;;;;;;;8.25;7.25;;;;;8.48;82.65;100071.28;5075558;27;45334;-66
2022/11/21 03:02:50;;;;;;;;;6.00;6.00;;;;;8.34;82.46;100042.13;5075566;27;45369;-68
2022/11/21 03:05:17;;;;;;;;;6.50;6.50;;;;;8.52;82.52;100058.06;5075889;27;45304;-67
2022/11/21 03:07:43;;;;;;;;;7.00;7.00;;;;;8.52;82.46;100052.81;5075533;28;46510;-68
2022/11/21 03:10:09;;;;;;;;;8.00;6.00;;;;;8.51;82.54;100062.47;5075456;27;45342;-66
2022/11/21 03:12:36;;;;;;;;;11.00;11.00;;;;;8.51;82.21;100062.47;5075316;27;45318;-66
2022/11/21 03:15:03;;;;;;;;;11.50;11.00;;;;;8.54;82.32;100054.50;5075595;27;45526;-65
2022/11/21 03:17:28;;;;;;;;;8.25;8.25;;;;;8.53;82.63;100058.03;5090895;27;47931;-66
2022/11/21 03:19:53;;;;;;;;;8.00;8.00;;;;;8.56;82.42;100057.03;5075010;28;46052;-67
2022/11/21 03:22:19;;;;;;;;;6.50;6.50;;;;;8.53;82.38;100047.53;5075507;27;45404;-66
2022/11/21 03:24:44;;;;;;;;;7.25;7.25;;;;;8.53;82.54;100039.69;5075327;28;45613;-68
2022/11/21 03:27:09;;;;;;;;;11.25;11.25;;;;;8.54;82.47;100038.75;5090348;27;48417;-66
2022/11/21 03:29:35;;;;;;;;;8.50;7.00;;;;;8.57;82.52;100022.91;5074994;28;49425;-68
2022/11/21 03:32:00;;;;;;;;;6.25;6.25;;;;;8.56;82.28;100021.19;5075232;27;45219;-66
2022/11/21 03:34:25;;;;;;;;;7.00;5.75;;;;;8.60;82.23;100017.53;5075474;27;45265;-67
2022/11/21 03:36:51;;;;;;;;;6.50;5.00;;;;;8.60;82.18;100014.03;5074973;27;46376;-67
2022/11/21 03:39:16;;;;;;;;;5.50;5.50;;;;;8.56;82.10;99994.97;5074678;27;45347;-67
2022/11/21 03:41:41;;;;;;;;;5.00;5.00;;;;;8.57;82.41;99994.06;5075074;27;45338;-68
2022/11/21 03:44:10;;;;;;;;;10.25;7.00;;;;;8.58;82.01;99995.78;5075054;27;45381;-67
2022/11/21 03:46:39;;;;;;;;;7.25;7.25;;;;;8.59;82.04;99994.84;5074520;27;46654;-66
2022/11/21 03:49:05;;;;;;;;;5.50;5.50;;;;;8.58;81.92;99994.91;5074470;27;45217;-67
2022/11/21 03:51:31;;;;;;;;;6.50;5.25;;;;;8.55;82.06;99990.66;5075158;27;45215;-68
2022/11/21 03:53:57;;;;;;;;;5.75;5.00;;;;;8.44;82.18;99966.59;5074750;27;45407;-67
2022/11/21 03:56:23;;;;;;;;;5.25;5.25;;;;;8.58;81.80;99993.16;5074708;27;45426;-67
2022/11/21 03:58:49;;;;;;;;;6.00;6.00;;;;;8.57;81.81;99986.19;5074682;27;45235;-66
2022/11/21 04:01:14;;;;;;;;;7.00;5.50;;;;;8.57;81.82;99975.72;5074632;27;45402;-67
2022/11/21 04:03:41;;;;;;;;;4.75;4.75;;;;;8.57;81.88;99966.97;5074810;27;45330;-68
2022/11/21 04:06:08;;;;;;;;;6.50;6.50;;;;;8.59;81.58;99968.63;5074639;27;45453;-67
2022/11/21 04:08:33;;;;;;;;;7.75;7.75;;;;;8.57;81.40;99951.25;5074666;27;45446;-69
2022/11/21 04:10:59;;;;;;;;;6.00;6.00;;;;;8.59;81.80;99950.28;5074705;27;45328;-67
2022/11/21 04:13:24;;;;;;;;;4.25;4.25;;;;;8.58;81.78;99945.97;5074956;27;45631;-66
2022/11/21 04:15:50;;;;;;;;;6.25;6.25;;;;;8.58;81.98;99951.22;5107315;27;47342;-68
2022/11/21 04:18:15;;;;;;;;;8.50;8.50;;;;;8.56;81.81;99937.31;5074902;27;45249;-66
2022/11/21 04:20:41;;;;;;;;;8.50;7.75;;;;;8.52;81.55;99925.25;5074762;27;45311;-67
2022/11/21 04:23:06;;;;;;;;;9.25;8.00;;;;;8.47;81.56;99916.66;5074823;27;45328;-67
2022/11/21 04:25:32;;;;;;;;;11.75;10.00;;;;;8.43;81.75;99915.09;5074658;27;45366;-66
2022/11/21 04:28:00;;;;;;;;;9.25;9.25;;;;;8.41;81.64;99916.94;5072695;28;45328;-68
2022/11/21 04:30:26;;;;;;;;;9.50;9.50;;;;;8.37;81.43;99923.22;5074388;27;45308;-68
2022/11/21 04:32:52;;;;;;;;;8.25;7.00;;;;;8.33;82.03;99912.84;5074456;27;45284;-66
2022/11/21 04:35:18;;;;;;;;;8.00;8.00;;;;;8.29;82.14;99913.06;5073926;27;46407;-67
2022/11/21 04:37:43;;;;;;;;;7.50;7.50;;;;;8.26;81.89;99906.16;5073944;28;45289;-66
2022/11/21 04:40:09;;;;;;;;;8.00;8.00;;;;;8.23;82.41;99898.44;5077432;27;45424;-68
2022/11/21 04:42:35;;;;;;;;;7.50;7.50;;;;;8.06;81.91;99877.31;5078284;27;45671;-67
2022/11/21 04:45:00;;;;;;;;;8.00;8.00;;;;;8.18;82.51;99889.91;5076143;28;46098;-67
2022/11/21 04:47:25;;;;;;;;;14.00;12.75;;;;;8.15;81.88;99890.91;5077487;27;50405;-68
2022/11/21 04:49:51;;;;;;;;;11.75;10.75;;;;;8.14;82.56;99888.34;5078016;27;45257;-67
2022/11/21 04:52:16;;;;;;;;;10.25;10.00;;;;;8.08;82.03;99875.50;5093923;27;45562;-68
2022/11/21 04:54:41;;;;;;;;;9.75;9.00;;;;;8.08;82.82;99875.50;5077976;27;45488;-69
2022/11/21 04:57:07;;;;;;;;;8.25;8.00;;;;;8.06;82.65;99859.84;5076118;28;51041;-68
2022/11/21 04:59:32;;;;;;;;;9.75;9.75;;;;;8.10;82.68;99865.81;5078147;27;45330;-67
2022/11/21 05:01:57;;;;;;;;;9.50;9.50;;;;;8.07;82.63;99861.56;5077895;27;45181;-66
2022/11/21 05:04:23;;;;;;;;;9.50;9.50;;;;;7.97;83.12;99839.28;5077100;27;45596;-67
2022/11/21 05:06:48;;;;;;;;;13.75;13.75;;;;;8.12;83.05;99853.50;5077088;28;49749;-67
2022/11/21 05:09:13;;;;;;;;;10.25;9.75;;;;;8.08;82.71;99841.44;5077145;28;52310;-67
2022/11/21 05:14:25;;;;;;;;;14.00;14.00;;;;;8.15;83.23;99827.16;5077154;28;45709;-66
2022/11/21 05:16:50;;;;;;;;;10.00;10.00;;;;;8.16;82.97;99826.25;5076995;27;45420;-66
2022/11/21 05:19:16;;;;;;;;;15.50;10.75;;;;;8.16;83.07;99824.50;5077317;27;45303;-67
2022/11/21 05:21:41;;;;;;;;;18.25;18.25;;;;;8.19;83.32;99818.25;5093338;27;45434;-68
2022/11/21 05:24:06;;;;;;;;;13.50;13.50;;;;;8.21;82.74;99820.84;5077376;27;45409;-68
2022/11/21 05:26:32;;;;;;;;;15.50;14.25;;;;;8.19;82.68;99818.25;5077175;27;45308;-67
2022/11/21 05:28:57;;;;;;;;;13.75;13.25;;;;;8.19;82.81;99818.25;5077225;27;45477;-66
2022/11/21 05:31:23;;;;;;;;;17.50;15.00;;;;;8.16;82.93;99813.16;5077482;27;45655;-66
2022/11/21 05:33:48;;;;;;;;;15.00;14.75;;;;;8.24;82.62;99831.19;5076893;27;45356;-66
2022/11/21 05:36:13;;;;;;;;;14.25;14.25;;;;;8.22;82.99;99830.41;5076959;27;45349;-65
2022/11/21 05:38:39;;;;;;;;;14.75;14.75;;;;;8.25;82.40;99825.03;5077084;27;45390;-66
2022/11/21 05:41:04;;;;;;;;;16.25;16.25;;;;;8.24;82.70;99825.94;5077630;27;45525;-66
2022/11/21 05:43:44;;;;;;;;;14.50;14.50;;;;;8.23;82.61;99819.00;5076605;27;46363;-66
2022/11/21 05:46:21;;;;;;;;;17.00;14.75;;;;;8.25;82.90;99819.78;5076808;27;45397;-66
2022/11/21 05:48:48;;;;;;;;;14.00;14.00;;;;;8.26;82.64;99818.88;5092420;27;45375;-66
2022/11/21 05:51:14;;;;;;;;;14.00;14.00;;;;;8.22;82.73;99802.41;5076991;27;45488;-66
2022/11/21 05:53:40;;;;;;;;;10.25;10.25;;;;;8.27;82.37;99810.94;5076059;27;46812;-66
2022/11/21 05:56:14;;;;;;;;;13.50;10.25;;;;;8.30;82.35;99794.25;5076912;27;45235;-66
2022/11/21 05:58:40;;;;;;;;;12.00;12.00;;;;;8.28;82.50;99790.84;5075825;28;45402;-67
2022/11/21 06:01:09;;;;;;;;;16.25;14.00;;;;;8.30;82.11;99784.59;5077605;28;45218;-66
2022/11/21 06:03:38;;;;;;;;;12.75;12.50;;;;;8.27;82.37;99779.47;5076908;27;46834;-67
2022/11/21 06:06:09;;;;;;;;;12.00;12.00;;;;;8.29;81.83;99780.28;5076613;27;45342;-67
2022/11/21 06:08:40;;;;;;;;;13.50;12.75;;;;;8.28;82.38;99769.88;5074921;28;45574;-66
2022/11/21 06:11:07;;;;;;;;;12.75;10.25;;;;;8.30;82.59;99768.03;5077156;27;45342;-67
2022/11/21 06:13:33;;;;;;;;;10.50;10.50;;;;;8.27;82.11;99766.38;5076257;28;46547;-66
2022/11/21 06:16:05;;;;;;;;;12.00;11.75;;;;;8.27;81.85;99753.28;5074967;28;45185;-66
2022/11/21 06:18:37;;;;;;;;;10.25;10.25;;;;;8.29;82.21;99748.00;5076667;27;45320;-66
2022/11/21 06:21:06;;;;;;;;;14.00;14.00;;;;;8.30;82.55;99733.97;5075098;28;45416;-67
2022/11/21 06:23:32;;;;;;;;;10.50;10.50;;;;;8.31;82.38;99731.28;5075995;27;46539;-66
2022/11/21 06:25:59;;;;;;;;;11.25;11.25;;;;;8.34;82.51;99715.41;5075795;28;45308;-66
2022/11/21 06:28:25;;;;;;;;;16.50;16.00;;;;;8.37;82.55;99716.19;5076176;27;45421;-68
2022/11/21 06:30:51;;;;;;;;;18.75;16.75;;;;;8.39;82.21;99712.59;5076465;27;45819;-67
2022/11/21 06:33:17;;;;;;;;;13.00;13.00;;;;;8.43;82.45;99710.66;5075876;27;46302;-68
2022/11/21 06:35:43;;;;;;;;;13.25;13.25;;;;;8.44;81.67;99704.50;5075715;27;45289;-66
2022/11/21 06:38:09;;;;;;;;;13.50;13.25;;;;;8.43;81.42;99703.66;5075913;28;45338;-67
2022/11/21 06:40:34;;;;;;;;;13.00;12.25;;;;;8.50;81.42;99708.66;5075861;27;45582;-68
2022/11/21 06:43:00;;;;;;;;;16.25;15.25;;;;;8.51;81.35;99708.59;5075522;27;46157;-67
2022/11/21 06:45:25;;;;;;;;;13.50;12.50;;;;;8.50;81.54;99700.81;5075559;27;45387;-68
2022/11/21 06:47:51;;;;;;;;;18.50;17.25;;;;;8.50;81.55;99706.03;5075566;28;45267;-68
2022/11/21 06:50:16;;;;;;;;;15.00;15.00;;;;;8.51;81.38;99703.38;5075854;27;45615;-67
2022/11/21 06:52:42;;;;;;;;;17.00;13.50;;;;;8.53;81.70;99695.41;5075326;27;45357;-67
2022/11/21 06:55:09;;;;;;;;;13.25;13.00;;;;;8.50;81.79;99692.94;5074770;27;45472;-66
2022/11/21 06:57:34;;;;;;;;;16.25;15.75;;;;;8.44;81.42;99681.78;5073635;27;45324;-66
2022/11/21 06:59:59;;;;;;;;;16.75;16.75;;;;;8.48;81.44;99680.72;5075150;27;45596;-68
2022/11/21 07:02:26;;;;;;;;;16.75;16.75;;;;;8.50;81.74;99671.97;5074100;27;46151;-66
2022/11/21 07:04:51;;;;;;;;;17.50;17.50;;;;;8.50;80.73;99657.13;5075134;27;45394;-66
2022/11/21 07:07:16;;;;;;;;;19.25;18.75;;;;;8.49;81.41;99637.06;5090755;27;45334;-66
2022/11/21 07:09:43;;;;;;;;;26.25;26.25;;;;;8.53;81.33;99624.66;5073644;28;45551;-66
2022/11/21 07:14:52;;;;;;;;;27.00;27.00;;;;;8.55;81.27;99615.81;5074374;28;45399;-66
2022/11/21 07:17:18;;;;;;;;;26.75;26.75;;;;;8.58;80.95;99609.56;5090043;27;45282;-66
2022/11/21 07:19:43;;;;;;;;;58.00;48.00;;;;;8.59;81.19;99600.75;5075315;27;45403;-66
2022/11/21 07:22:08;;;;;;;;;25.25;25.25;;;;;8.59;81.04;99606.88;5073439;28;47809;-67
2022/11/21 07:24:34;;;;;;;;;19.50;19.50;;;;;8.60;80.92;99600.72;5074881;27;45491;-67
2022/11/21 07:27:00;;;;;;;;;25.25;25.25;;;;;8.51;80.47;99574.94;5075111;27;45821;-67
2022/11/21 07:29:26;;;;;;;;;24.00;20.50;;;;;8.57;80.24;99582.50;5075429;27;45308;-66
2022/11/21 07:31:51;;;;;;;;;22.50;22.00;;;;;8.59;80.36;99580.66;5090207;27;46074;-68
2022/11/21 07:34:17;;;;;;;;;19.50;19.50;;;;;8.52;80.23;99568.78;5075017;27;45292;-67
2022/11/21 07:36:42;;;;;;;;;25.25;24.50;;;;;8.56;80.10;99569.47;5075236;27;45182;-68
2022/11/21 07:39:07;;;;;;;;;19.75;18.00;;;;;8.51;79.82;99551.34;5075087;27;45240;-66
2022/11/21 07:41:33;;;;;;;;;18.75;18.75;;;;;8.53;79.99;99561.75;5072835;28;47499;-66
2022/11/21 07:43:58;;;;;;;;;21.50;21.25;;;;;8.52;79.84;99565.28;5074500;27;45292;-67
2022/11/21 07:46:24;;;;;;;;;21.75;21.75;;;;;8.54;79.99;99566.94;5074519;27;45545;-67
2022/11/21 07:48:49;;;;;;;;;23.00;22.25;;;;;8.51;79.86;99553.09;5074399;27;45344;-67
2022/11/21 07:51:15;;;;;;;;;25.50;25.50;;;;;8.57;79.88;99553.66;5073958;27;46407;-66
2022/11/21 07:53:40;;;;;;;;;20.25;19.00;;;;;8.58;79.48;99544.88;5072826;28;45425;-67
2022/11/21 07:56:08;;;;;;;;;18.50;18.50;;;;;8.57;80.00;99540.56;5072543;28;45389;-67
2022/11/21 07:58:33;;;;;;;;;23.00;23.00;;;;;8.61;79.58;99542.13;5074514;28;45333;-67
2022/11/21 08:01:04;;;;;;;;;21.25;21.25;;;;;8.61;79.71;99529.00;5073884;27;45288;-66
2022/11/21 08:03:29;;;;;;;;;23.75;22.50;;;;;8.57;79.15;99497.75;5071079;27;45571;-65
2022/11/21 08:05:54;;;;;;;;;25.25;25.25;;;;;8.57;79.15;99482.91;5085423;27;45444;-67
2022/11/21 08:08:20;;;;;;;;;25.25;25.00;;;;;8.58;79.08;99479.34;5084473;27;45676;-66
2022/11/21 08:10:45;;;;;;;;;23.75;23.75;;;;;8.55;78.98;99479.50;5070346;27;45516;-65
2022/11/21 08:13:12;;;;;;;;;23.75;22.25;;;;;8.51;79.28;99475.34;5085785;27;45374;-68
2022/11/21 08:15:38;;;;;;;;;26.50;26.50;;;;;8.47;79.49;99487.69;5091803;27;45635;-66
2022/11/21 08:18:09;;;;;;;;;22.25;22.25;;;;;8.43;79.31;99485.28;5073296;27;45505;-68
2022/11/21 08:20:34;;;;;;;;;24.25;23.50;;;;;8.42;79.70;99486.22;5061826;27;46355;-67
2022/11/21 08:23:00;;;;;;;;;21.75;21.75;;;;;8.42;79.82;99481.84;5083230;27;45561;-68
2022/11/21 08:25:25;;;;;;;;;25.00;25.00;;;;;8.39;79.50;99468.88;5079906;27;45643;-65
2022/11/21 08:27:50;;;;;;;;;21.00;20.75;;;;;8.38;79.54;99474.19;5078643;27;45487;-66
2022/11/21 08:30:16;;;;;;;;;30.75;30.25;;;;;8.45;80.12;99467.72;5072416;27;45840;-66
2022/11/21 08:32:41;;;;;;;;;26.75;24.50;;;;;8.47;80.03;99469.34;5075790;27;45444;-66
2022/11/21 08:35:07;;;;;;;;;28.50;28.50;;;;;8.51;79.67;99474.47;5085819;27;45943;-66
2022/11/21 08:37:32;;;;;;;;;22.00;22.00;;;;;8.48;79.64;99473.66;5087157;27;45547;-66
2022/11/21 08:39:57;;;;;;;;;17.00;17.00;;;;;8.55;79.19;99483.88;5068868;27;45434;-65
2022/11/21 08:42:23;;;;;;;;;22.00;19.25;;;;;8.56;79.31;99473.34;5079770;27;45331;-67
2022/11/21 08:44:49;;;;;;;;;21.75;20.75;;;;;8.53;79.78;99465.63;5089747;27;45469;-67
2022/11/21 08:47:14;;;;;;;;;26.75;22.00;;;;;8.54;79.28;99463.84;5074470;27;45620;-67
2022/11/21 08:49:40;;;;;;;;;16.75;15.25;;;;;8.60;79.68;99479.25;5071389;28;46231;-69
2022/11/21 08:52:05;;;;;;;;;17.75;17.75;;;;;8.65;79.63;99476.44;5069994;27;45800;-70
2022/11/21 08:54:31;;;;;;;;;20.50;20.50;;;;;8.60;79.17;99459.16;5051318;28;45580;-70
2022/11/21 08:56:56;;;;;;;;;20.50;19.25;;;;;8.67;79.23;99462.28;5060634;28;45517;-70
2022/11/21 08:59:21;;;;;;;;;16.50;16.50;;;;;8.68;79.16;99455.31;5051104;28;45607;-69
2022/11/21 09:01:47;;;;;;;;;16.00;16.00;;;;;8.67;79.08;99445.75;5051581;28;45413;-72
2022/11/21 09:04:12;;;;;;;;;16.00;16.00;;;;;8.65;79.25;99434.47;5053316;28;45395;-68
2022/11/21 09:06:38;;;;;;;;;17.25;16.50;;;;;8.67;nan;99424.75;5053895;28;45231;-73
2022/11/21 09:09:04;;;;;;;;;17.25;17.25;;;;;8.71;79.57;99415.81;5052832;28;45266;-72
2022/11/21 09:11:30;;;;;;;;;18.25;15.75;;;;;8.72;79.24;99392.13;5051690;28;45548;-69
2022/11/21 09:19:25;;;;;;;;;19.00;18.75;;;;;8.69;79.50;99407.19;5051678;28;45320;-71
2022/11/21 09:21:52;;;;;;;;;14.25;14.25;;;;;8.74;79.50;99395.50;5051389;28;45425;-70
2022/11/21 09:24:18;;;;;;;;;17.25;17.25;;;;;8.78;79.07;99406.72;5050182;28;45556;-70
2022/11/21 09:26:44;;;;;;;;;13.00;13.00;;;;;8.82;79.43;99400.38;5055426;28;45510;-70
2022/11/21 09:29:13;;;;;;;;;11.75;11.75;;;;;8.82;78.81;99386.41;5056348;28;46122;-71
2022/11/21 09:31:40;;;;;;;;;12.75;12.75;;;;;8.87;79.39;99380.00;5072522;27;45259;-72
2022/11/21 09:34:05;;;;;;;;;14.75;13.75;;;;;8.89;79.03;99367.66;5059207;28;45795;-71
2022/11/21 09:36:31;;;;;;;;;13.50;13.50;;;;;8.94;78.72;99354.28;5055521;28;45437;-71
2022/11/21 09:38:56;;;;;;;;;17.50;15.75;;;;;8.98;78.60;99347.13;5056057;28;45402;-70
2022/11/21 09:41:53;;;;;;;;;18.25;18.25;;;;;8.98;78.55;99324.34;5056193;28;45493;-71
2022/11/21 09:44:47;;;;;;;;;12.00;10.50;;;;;9.01;78.28;99336.47;5057062;28;45338;-71
2022/11/21 09:47:19;;;;;;;;;19.25;16.25;;;;;9.03;78.31;99311.84;5055232;28;45400;-71
2022/11/21 09:49:54;;;;;;;;;20.75;20.75;;;;;9.05;78.41;99303.88;5054874;28;47147;-70
2022/11/21 09:52:23;;;;;;;;;17.50;17.50;;;;;9.00;78.17;99275.28;5055788;28;45635;-71
2022/11/21 09:54:57;;;;;;;;;16.00;15.25;;;;;8.98;78.38;99261.41;5056662;28;45539;-71
2022/11/21 09:57:25;;;;;;;;;12.25;12.25;;;;;9.04;78.15;99261.09;5055023;28;45549;-69
2022/11/21 09:59:51;;;;;;;;;13.75;13.75;;;;;9.01;78.08;99260.41;5056636;28;45431;-69
2022/11/21 10:02:20;;;;;;;;;14.75;14.75;;;;;9.05;78.02;99267.16;5056187;28;45442;-70
2022/11/21 10:04:46;;;;;;;;;10.75;10.75;;;;;9.00;77.88;99256.91;5056357;28;45346;-70
2022/11/21 10:07:19;;;;;;;;;11.50;11.50;;;;;8.99;77.99;99251.75;5088931;27;45314;-71
2022/11/21 10:10:03;;;;;;;;;13.00;13.00;;;;;9.03;78.30;99242.78;5066278;28;45648;-70
2022/11/21 10:12:59;;;;;;;;;13.50;13.50;;;;;9.15;78.11;99217.66;5075066;28;45454;-70
2022/11/21 10:15:39;;;;;;;;;17.00;16.50;;;;;9.21;77.84;99212.06;5075145;28;45466;-69
2022/11/21 10:18:13;;;;;;;;;10.75;10.75;;;;;9.28;77.79;99202.91;5076040;27;45351;-70
2022/11/21 10:21:08;;;;;;;;;12.00;10.50;;;;;9.35;77.15;99200.78;5076082;28;45436;-70
2022/11/21 10:24:02;;;;;;;;;10.00;10.00;;;;;9.35;77.81;99179.78;5076276;28;45541;-70
2022/11/21 10:26:39;;;;;;;;;9.25;9.25;;;;;9.38;76.86;99182.22;5076398;28;45390;-70
2022/11/21 10:29:28;;;;;;;;;12.00;12.00;;;;;9.39;76.83;99176.03;5076342;28;45316;-69
2022/11/21 10:31:57;;;;;;;;;10.75;10.75;;;;;9.37;76.37;99151.66;5074797;28;48155;-71
2022/11/21 10:34:28;;;;;;;;;10.00;10.00;;;;;9.42;76.67;99141.75;5076393;28;45531;-70
2022/11/21 10:36:59;;;;;;;;;15.25;15.25;;;;;9.54;76.72;99139.34;5074921;27;45406;-70
2022/11/21 10:39:33;;;;;;;;;11.50;11.50;;;;;9.61;76.91;99141.53;5074632;28;45425;-69
2022/11/21 10:42:26;;;;;;;;;10.50;10.50;;;;;9.72;76.71;99146.16;5075647;28;46636;-69
2022/11/21 10:47:38;;;;;;;;;13.25;12.25;;;;;9.85;76.01;99134.91;5075238;28;45336;-71
2022/11/21 10:50:09;;;;;;;;;12.00;12.00;;;;;9.89;76.16;99120.66;5075896;27;45379;-69
2022/11/21 10:52:49;;;;;;;;;9.00;9.00;;;;;9.93;75.63;99112.47;5075346;28;45601;-71
2022/11/21 10:55:16;;;;;;;;;46.00;38.25;;;;;9.96;75.84;99098.31;5074902;28;45278;-70
2022/11/21 10:57:47;;;;;;;;;13.25;13.25;;;;;9.96;75.36;99090.44;5075425;28;45232;-70
2022/11/21 11:00:13;;;;;;;;;12.75;12.75;;;;;10.02;75.04;99094.44;5075345;28;45402;-73
2022/11/21 11:02:41;;;;;;;;;9.00;8.00;;;;;10.03;75.19;99099.63;5075035;28;46269;-72
2022/11/21 11:05:15;;;;;;;;;11.25;11.25;;;;;10.04;74.74;99088.19;5073246;28;45319;-72
2022/11/21 11:07:40;;;;;;;;;13.75;13.75;;;;;10.02;74.87;99079.53;5074456;28;45355;-71
2022/11/21 11:10:22;;;;;;;;;10.50;10.50;;;;;9.98;74.81;99072.81;5075511;28;45809;-71
2022/11/21 11:13:49;;;;;;;;;25.25;24.00;;;;;10.01;74.63;99069.13;5090399;27;47389;-71
2022/11/21 11:16:02;;;;;;;;;9.00;8.75;;;;;9.98;75.07;99074.56;5074050;28;45442;-71
2022/11/21 11:18:30;;;;;;;;;10.50;10.00;;;;;9.97;74.82;99081.63;5074636;27;45345;-72
2022/11/21 11:21:18;;;;;;;;;16.25;16.25;;;;;9.98;74.81;99064.06;5074962;28;45233;-70
2022/11/21 11:23:44;;;;;;;;;22.50;22.50;;;;;9.96;75.10;99056.28;5089481;27;47151;-71
2022/11/21 11:26:27;;;;;;;;;20.00;19.75;;;;;9.94;74.71;99059.00;5072704;28;45300;-72
2022/11/21 11:29:05;;;;;;;;;9.50;9.50;;;;;9.89;74.70;99040.06;5075227;27;45329;-70
2022/11/21 11:31:41;;;;;;;;;11.25;10.00;;;;;9.87;74.81;99035.84;5075093;28;45420;-70
2022/11/21 11:34:11;;;;;;;;;11.00;10.25;;;;;9.83;74.66;99023.84;5074772;27;46335;-72
2022/11/21 11:36:43;;;;;;;;;9.00;9.00;;;;;9.84;75.01;99025.53;5074832;28;45243;-71
2022/11/21 11:39:31;;;;;;;;;12.25;12.25;;;;;9.79;74.92;99018.78;5075073;28;45419;-72
2022/11/21 11:48:06;;;;;;;;;19.00;17.00;;;;;9.77;75.21;98978.66;5073025;28;45452;-70
2022/11/21 11:50:39;;;;;;;;;14.75;12.50;;;;;9.76;74.94;98958.59;5074792;28;45282;-70
2022/11/21 11:53:13;;;;;;;;;12.00;12.00;;;;;9.73;75.09;98950.91;5074460;28;45212;-72